Time;durP1;ratioP1;P1;durP2;ratioP2;P2;SDS_P1;SDS_P2;PMS_P1;PMS_P2;Temp;Humidity;BMP_temperature;BMP_pressure;BME280_temperature;BME280_humidity;BME280_pressure;Samples;Min_cycle;Max_cycle;Signal;HPM_P1;HPM_P2
2023/01/25 00:00:16;;;;;;;12.48;4.97;;;2.80;99.90;;;;;;4970605;28;20504;-76
2023/01/25 00:02:42;;;;;;;15.77;5.95;;;2.80;99.90;;;;;;4987801;28;20041;-76
2023/01/25 00:05:08;;;;;;;8.95;3.85;;;2.80;99.90;;;;;;4990687;28;20049;-77
2023/01/25 00:07:34;;;;;;;14.63;6.30;;;2.80;99.90;;;;;;4974144;28;20046;-76
2023/01/25 00:09:59;;;;;;;10.45;4.95;;;2.80;99.90;;;;;;4991500;28;20117;-76
2023/01/25 00:12:25;;;;;;;11.75;4.82;;;2.70;99.90;;;;;;4992141;28;20664;-76
2023/01/25 00:14:51;;;;;;;10.05;4.80;;;2.70;99.90;;;;;;4987815;28;20055;-76
2023/01/25 00:17:17;;;;;;;13.70;5.00;;;2.70;99.90;;;;;;4983741;28;20482;-77
2023/01/25 00:19:43;;;;;;;8.00;5.03;;;2.80;99.90;;;;;;4985119;28;20026;-77
2023/01/25 00:22:08;;;;;;;7.32;4.43;;;2.80;99.90;;;;;;4977809;28;20035;-77
2023/01/25 00:24:34;;;;;;;12.77;5.10;;;2.90;99.90;;;;;;4973671;28;20042;-77
2023/01/25 00:27:01;;;;;;;9.65;4.78;;;2.80;99.90;;;;;;4966261;28;20026;-77
2023/01/25 00:29:27;;;;;;;12.02;5.38;;;2.90;99.90;;;;;;4990620;28;20029;-75
2023/01/25 00:32:00;;;;;;;11.93;6.32;;;2.90;99.90;;;;;;4991283;28;20030;-77
2023/01/25 00:34:26;;;;;;;11.48;5.07;;;2.80;99.90;;;;;;4991744;28;20030;-75
2023/01/25 00:37:19;;;;;;;10.88;5.60;;;2.80;99.90;;;;;;4966128;28;20034;-76
2023/01/25 00:39:45;;;;;;;11.85;4.70;;;2.80;99.90;;;;;;4991669;28;20030;-75
2023/01/25 00:42:12;;;;;;;12.77;4.97;;;2.90;99.90;;;;;;4990317;28;20045;-76
2023/01/25 00:44:39;;;;;;;16.05;6.63;;;2.90;99.90;;;;;;4991799;28;20104;-76
2023/01/25 00:47:05;;;;;;;8.48;4.10;;;2.80;99.90;;;;;;4989788;28;20368;-76
2023/01/25 00:49:32;;;;;;;12.65;5.80;;;2.80;99.90;;;;;;4991585;28;20031;-76
2023/01/25 00:51:59;;;;;;;12.93;5.55;;;2.90;99.90;;;;;;4989954;28;20034;-75
2023/01/25 00:54:25;;;;;;;11.63;5.85;;;2.80;99.90;;;;;;4991231;28;20144;-77
2023/01/25 00:56:52;;;;;;;12.73;5.85;;;2.90;99.90;;;;;;4988383;28;20113;-76
2023/01/25 00:59:18;;;;;;;9.32;4.55;;;3.00;99.90;;;;;;4991537;28;20026;-77
2023/01/25 01:01:47;;;;;;;9.82;4.90;;;2.90;99.90;;;;;;4990509;28;20034;-76
2023/01/25 01:04:13;;;;;;;17.52;6.25;;;2.90;99.90;;;;;;4989724;28;20027;-77
2023/01/25 01:06:40;;;;;;;9.93;4.05;;;2.70;99.90;;;;;;4988811;28;20042;-76
2023/01/25 01:09:11;;;;;;;7.57;4.82;;;2.60;99.90;;;;;;4973553;28;20022;-77
2023/01/25 01:11:37;;;;;;;9.90;5.68;;;2.70;99.90;;;;;;4988992;28;20030;-76
2023/01/25 01:14:03;;;;;;;12.63;5.88;;;2.70;99.90;;;;;;4989752;28;20502;-77
2023/01/25 01:16:29;;;;;;;8.35;4.03;;;2.60;99.90;;;;;;4988653;28;20034;-77
2023/01/25 01:18:54;;;;;;;10.02;4.28;;;2.60;99.90;;;;;;4989594;28;20033;-77
2023/01/25 01:21:21;;;;;;;11.00;4.75;;;2.60;99.90;;;;;;4990596;28;20065;-77
2023/01/25 01:23:47;;;;;;;9.65;5.25;;;2.60;99.90;;;;;;4973237;28;20026;-77
2023/01/25 01:26:18;;;;;;;8.52;4.50;;;2.60;99.90;;;;;;4989974;28;20026;-77
2023/01/25 01:28:44;;;;;;;10.20;5.25;;;2.70;99.90;;;;;;4989651;28;20030;-77
2023/01/25 01:31:16;;;;;;;8.10;4.60;;;2.70;99.90;;;;;;4966862;28;20034;-77
2023/01/25 01:33:42;;;;;;;13.52;4.47;;;2.70;99.90;;;;;;4973430;28;20046;-77
2023/01/25 01:36:16;;;;;;;12.10;4.38;;;2.80;99.90;;;;;;4990061;28;20039;-77
2023/01/25 01:38:42;;;;;;;12.52;4.30;;;2.80;99.90;;;;;;4990413;28;20042;-77
2023/01/25 01:41:08;;;;;;;7.22;4.20;;;2.90;99.90;;;;;;4984165;28;20043;-76
2023/01/25 01:43:35;;;;;;;9.27;5.22;;;2.90;99.90;;;;;;4989446;28;20117;-77
2023/01/25 01:46:03;;;;;;;8.55;4.90;;;2.80;99.90;;;;;;4989171;28;20030;-77
2023/01/25 01:48:56;;;;;;;11.68;4.90;;;2.90;99.90;;;;;;4988474;28;20074;-76
2023/01/25 01:51:42;;;;;;;8.48;4.75;;;2.80;99.90;;;;;;4988730;28;20169;-76
2023/01/25 01:54:24;;;;;;;8.50;3.17;;;3.00;99.90;;;;;;4973298;28;20398;-75
2023/01/25 01:57:01;;;;;;;9.60;4.53;;;3.00;99.90;;;;;;4989098;28;20126;-76
2023/01/25 01:59:36;;;;;;;9.70;5.15;;;3.00;99.90;;;;;;4989474;28;20569;-76
2023/01/25 02:02:02;;;;;;;8.45;4.40;;;3.00;99.90;;;;;;4988149;28;20045;-76
2023/01/25 02:04:28;;;;;;;10.27;3.15;;;2.70;99.90;;;;;;4969538;28;20368;-77
2023/01/25 02:07:10;;;;;;;8.73;4.28;;;2.60;99.90;;;;;;4964503;28;20038;-76
2023/01/25 02:09:36;;;;;;;8.98;4.57;;;2.60;99.90;;;;;;4977342;28;20023;-77
2023/01/25 02:12:05;;;;;;;9.27;4.95;;;2.60;99.90;;;;;;4989219;28;20034;-76
2023/01/25 02:14:31;;;;;;;11.55;4.55;;;2.50;99.90;;;;;;4990096;28;20041;-76
2023/01/25 02:16:57;;;;;;;8.57;3.88;;;2.50;99.90;;;;;;4991625;28;20030;-76
2023/01/25 02:19:47;;;;;;;6.88;3.53;;;2.60;99.90;;;;;;4992889;28;20045;-77
2023/01/25 02:22:19;;;;;;;6.93;3.25;;;2.50;99.90;;;;;;4974792;28;20059;-76
2023/01/25 02:24:57;;;;;;;9.30;4.75;;;2.60;99.90;;;;;;4960894;28;20046;-77
2023/01/25 02:27:23;;;;;;;13.45;3.92;;;2.60;99.90;;;;;;4959973;28;20038;-76
2023/01/25 02:29:49;;;;;;;17.80;4.43;;;2.60;99.90;;;;;;4974439;28;20113;-76
2023/01/25 02:32:15;;;;;;;10.93;4.72;;;2.70;99.90;;;;;;4983728;23;20092;-74
2023/01/25 02:34:41;;;;;;;8.25;4.20;;;2.70;99.90;;;;;;5010521;28;20029;-74
2023/01/25 02:37:13;;;;;;;8.88;4.57;;;2.70;99.90;;;;;;5012247;28;20504;-73
2023/01/25 02:39:40;;;;;;;11.32;4.35;;;2.80;99.90;;;;;;4996159;28;20061;-74
2023/01/25 02:42:05;;;;;;;13.77;4.70;;;2.80;99.90;;;;;;5008963;28;20648;-74
2023/01/25 02:44:32;;;;;;;11.77;4.03;;;2.80;99.90;;;;;;4993753;28;20730;-74
2023/01/25 02:46:58;;;;;;;20.73;5.43;;;2.80;99.90;;;;;;4991211;28;20065;-75
2023/01/25 02:49:24;;;;;;;10.65;4.68;;;2.90;99.90;;;;;;4992033;28;20062;-75
2023/01/25 02:51:56;;;;;;;9.63;3.70;;;2.90;99.90;;;;;;4992022;28;20390;-75
2023/01/25 02:54:24;;;;;;;7.40;3.72;;;2.80;99.90;;;;;;4969437;28;20117;-75
2023/01/25 02:56:50;;;;;;;15.20;4.43;;;2.80;99.90;;;;;;4974896;28;20034;-75
2023/01/25 02:59:17;;;;;;;6.70;3.25;;;2.90;99.90;;;;;;4985877;28;20022;-74
2023/01/25 03:01:44;;;;;;;5.75;3.20;;;2.90;99.90;;;;;;4991704;28;20037;-75
2023/01/25 03:04:10;;;;;;;10.32;4.15;;;2.80;99.90;;;;;;4990970;28;20038;-75
2023/01/25 03:06:37;;;;;;;8.23;4.28;;;2.80;99.90;;;;;;4991606;28;20033;-75
2023/01/25 03:09:05;;;;;;;11.73;4.68;;;2.70;99.90;;;;;;4992468;28;20034;-74
2023/01/25 03:11:31;;;;;;;11.70;3.88;;;2.70;99.90;;;;;;4991856;28;20141;-74
2023/01/25 03:13:56;;;;;;;7.53;4.10;;;2.80;99.90;;;;;;4992787;28;20542;-75
2023/01/25 03:16:22;;;;;;;10.35;4.15;;;2.80;99.90;;;;;;4991153;28;20410;-74
2023/01/25 03:18:48;;;;;;;4.65;3.00;;;2.80;99.90;;;;;;4991529;28;20035;-73
2023/01/25 03:21:18;;;;;;;6.82;3.58;;;2.90;99.90;;;;;;4992956;28;20038;-73
2023/01/25 03:23:46;;;;;;;8.85;3.05;;;2.90;99.90;;;;;;4992298;28;20080;-75
2023/01/25 03:27:09;;;;;;;6.35;3.30;;;2.70;99.90;;;;;;4991724;28;20045;-74
2023/01/25 03:29:17;;;;;;;10.65;3.15;;;2.50;99.90;;;;;;4991297;28;20018;-75
2023/01/25 03:31:43;;;;;;;10.02;3.65;;;2.40;99.90;;;;;;4975520;28;20738;-73
2023/01/25 03:34:08;;;;;;;13.40;3.42;;;2.50;99.90;;;;;;4990821;28;20042;-74
2023/01/25 03:36:34;;;;;;;7.22;2.85;;;2.40;99.90;;;;;;4992053;28;20031;-74
2023/01/25 03:38:59;;;;;;;5.97;2.80;;;2.50;99.90;;;;;;4992068;28;20038;-74
2023/01/25 03:41:25;;;;;;;8.55;4.25;;;2.40;99.90;;;;;;4992742;28;20537;-74
2023/01/25 03:43:51;;;;;;;5.32;3.22;;;2.50;99.90;;;;;;4992408;28;20038;-74
2023/01/25 03:46:16;;;;;;;11.77;3.90;;;2.40;99.90;;;;;;4991970;28;20039;-73
2023/01/25 03:48:42;;;;;;;6.78;3.40;;;2.40;99.90;;;;;;4992103;28;20040;-74
2023/01/25 03:51:08;;;;;;;7.85;3.55;;;2.30;99.90;;;;;;4992397;28;20037;-74
2023/01/25 03:53:33;;;;;;;7.22;3.42;;;2.40;99.90;;;;;;4991680;28;20034;-74
2023/01/25 03:56:07;;;;;;;13.77;4.68;;;2.40;99.90;;;;;;4992357;28;20046;-74
2023/01/25 03:58:34;;;;;;;5.78;3.10;;;2.40;99.90;;;;;;4991603;28;20545;-75
2023/01/25 04:01:01;;;;;;;7.70;3.83;;;2.60;99.90;;;;;;4991122;28;20045;-74
2023/01/25 04:03:28;;;;;;;6.82;4.57;;;2.80;99.90;;;;;;4990557;28;20577;-74
2023/01/25 04:05:56;;;;;;;13.75;3.95;;;2.80;99.90;;;;;;4991994;28;20125;-74
2023/01/25 04:08:23;;;;;;;8.02;4.53;;;2.80;99.90;;;;;;4989643;28;20085;-74
2023/01/25 04:10:54;;;;;;;5.85;2.97;;;2.80;99.90;;;;;;4992122;28;20505;-74
2023/01/25 04:13:22;;;;;;;9.68;3.90;;;2.70;99.90;;;;;;4991665;28;20037;-75
2023/01/25 04:15:48;;;;;;;7.32;4.32;;;2.50;99.90;;;;;;4990755;28;20075;-74
2023/01/25 04:18:15;;;;;;;14.45;4.60;;;2.50;99.90;;;;;;4990802;28;20562;-74
2023/01/25 04:20:41;;;;;;;12.38;6.03;;;2.40;99.90;;;;;;4992431;28;20436;-74
2023/01/25 04:23:08;;;;;;;11.13;4.18;;;2.40;99.90;;;;;;4990944;28;20436;-74
2023/01/25 04:25:34;;;;;;;12.93;5.03;;;2.40;99.90;;;;;;4974561;28;20045;-74
2023/01/25 04:28:00;;;;;;;11.85;5.00;;;2.40;99.90;;;;;;4987515;28;20030;-74
2023/01/25 04:30:26;;;;;;;5.53;3.47;;;2.50;99.90;;;;;;4974462;28;20368;-75
2023/01/25 04:32:51;;;;;;;8.85;4.47;;;2.50;99.90;;;;;;4969734;28;20062;-74
2023/01/25 04:35:19;;;;;;;12.38;4.25;;;2.60;99.90;;;;;;4991795;28;20395;-74
2023/01/25 04:37:56;;;;;;;10.00;4.95;;;2.50;99.90;;;;;;4988558;28;20410;-75
2023/01/25 04:40:22;;;;;;;10.55;4.55;;;2.70;99.90;;;;;;4984660;28;20041;-74
2023/01/25 04:42:48;;;;;;;10.13;4.10;;;2.70;99.90;;;;;;4991222;28;20038;-74
2023/01/25 04:45:13;;;;;;;5.13;3.28;;;2.70;99.90;;;;;;4958091;28;20077;-75
2023/01/25 04:47:39;;;;;;;9.45;3.70;;;2.60;99.90;;;;;;4990510;28;20037;-74
2023/01/25 04:50:05;;;;;;;12.40;5.53;;;2.70;99.90;;;;;;4991557;28;20093;-75
2023/01/25 04:52:31;;;;;;;16.95;5.93;;;2.60;99.90;;;;;;4990892;28;20065;-74
2023/01/25 04:54:56;;;;;;;11.23;3.60;;;2.60;99.90;;;;;;4991077;28;20061;-74
2023/01/25 04:57:23;;;;;;;12.30;4.88;;;2.60;99.90;;;;;;4972969;28;20046;-74
2023/01/25 04:59:48;;;;;;;12.95;4.57;;;2.70;99.90;;;;;;4991428;28;20042;-73
2023/01/25 05:02:14;;;;;;;13.55;6.07;;;2.80;99.90;;;;;;4991557;28;20040;-74
2023/01/25 05:04:40;;;;;;;9.18;3.85;;;2.60;99.90;;;;;;4990644;28;20041;-74
2023/01/25 05:07:06;;;;;;;12.65;4.65;;;2.60;99.90;;;;;;4990486;28;20022;-74
2023/01/25 05:09:31;;;;;;;11.75;5.13;;;2.50;99.90;;;;;;4990455;28;20488;-74
2023/01/25 05:11:57;;;;;;;6.93;3.47;;;2.40;99.90;;;;;;4991308;28;20147;-74
2023/01/25 05:14:23;;;;;;;7.97;4.85;;;2.50;99.90;;;;;;4990446;28;20069;-74
2023/01/25 05:16:49;;;;;;;11.20;5.18;;;2.60;99.90;;;;;;4990367;28;20033;-74
2023/01/25 05:19:14;;;;;;;12.50;4.18;;;2.50;99.90;;;;;;4990804;28;20030;-74
2023/01/25 05:21:58;;;;;;;7.22;4.38;;;2.50;99.90;;;;;;4989462;28;20042;-73
2023/01/25 05:24:30;;;;;;;12.27;5.20;;;2.40;99.90;;;;;;4989575;28;20030;-74
2023/01/25 05:27:02;;;;;;;8.18;4.30;;;2.40;99.90;;;;;;4988786;28;20109;-74
2023/01/25 05:29:40;;;;;;;9.70;5.50;;;2.30;99.90;;;;;;4969902;28;20023;-75
2023/01/25 05:32:19;;;;;;;10.32;4.05;;;2.30;99.90;;;;;;4976048;28;20518;-74
2023/01/25 05:34:46;;;;;;;9.48;5.18;;;2.30;99.90;;;;;;4986107;28;20022;-76
2023/01/25 05:37:15;;;;;;;13.98;6.05;;;2.40;99.90;;;;;;4989508;28;20035;-74
2023/01/25 05:39:47;;;;;;;16.35;8.00;;;2.50;99.90;;;;;;4973123;28;20030;-73
2023/01/25 05:42:19;;;;;;;17.23;6.32;;;2.60;99.90;;;;;;4947332;28;20038;-73
2023/01/25 05:44:44;;;;;;;;;;;2.80;99.90;;;;;;4990317;28;20038;-72
2023/01/25 05:47:13;;;;;;;9.85;6.10;;;2.70;99.90;;;;;;4989950;28;19936;-73
2023/01/25 05:49:38;;;;;;;15.48;5.88;;;2.80;99.90;;;;;;4973424;28;20034;-73
2023/01/25 05:52:04;;;;;;;8.45;4.25;;;2.70;99.90;;;;;;4994144;28;20052;-73
2023/01/25 05:54:30;;;;;;;12.40;5.38;;;2.70;99.90;;;;;;4993790;28;20045;-72
2023/01/25 05:56:55;;;;;;;10.13;5.57;;;2.60;99.90;;;;;;4986340;28;20030;-73
2023/01/25 05:59:21;;;;;;;7.32;4.15;;;2.50;99.90;;;;;;4984822;28;20042;-73
2023/01/25 06:01:47;;;;;;;10.73;4.78;;;2.50;99.90;;;;;;4993518;28;20022;-74
2023/01/25 06:04:15;;;;;;;14.23;4.25;;;2.30;99.90;;;;;;4995781;28;20088;-73
2023/01/25 06:06:40;;;;;;;12.98;5.35;;;2.20;99.90;;;;;;4991800;28;20038;-72
2023/01/25 06:09:06;;;;;;;10.60;4.38;;;2.30;99.90;;;;;;4972496;28;20375;-73
2023/01/25 06:11:32;;;;;;;16.50;5.35;;;2.40;99.90;;;;;;4992982;28;20054;-72
2023/01/25 06:13:58;;;;;;;13.18;5.47;;;2.40;99.90;;;;;;4983601;28;20554;-72
2023/01/25 06:16:24;;;;;;;11.65;4.30;;;2.60;99.90;;;;;;4982916;28;20125;-74
2023/01/25 06:18:49;;;;;;;10.90;5.22;;;2.60;99.90;;;;;;4962049;28;20494;-70
2023/01/25 06:21:15;;;;;;;20.08;5.88;;;2.50;99.90;;;;;;4983937;28;20035;-71
2023/01/25 06:23:41;;;;;;;11.90;5.53;;;2.50;99.90;;;;;;4991447;28;20042;-71
2023/01/25 06:26:12;;;;;;;9.60;4.47;;;2.60;99.90;;;;;;4991641;28;20108;-71
2023/01/25 06:28:38;;;;;;;7.15;3.88;;;2.50;99.90;;;;;;4992026;28;20041;-72
2023/01/25 06:31:14;;;;;;;7.15;5.07;;;2.50;99.90;;;;;;4963085;28;20039;-71
2023/01/25 06:33:41;;;;;;;8.07;5.57;;;2.40;99.90;;;;;;4975903;28;20030;-71
2023/01/25 06:36:13;;;;;;;11.43;5.93;;;2.50;99.90;;;;;;4984191;28;20042;-73
2023/01/25 06:38:39;;;;;;;9.63;4.70;;;2.50;99.90;;;;;;4968706;28;20045;-72
2023/01/25 06:41:09;;;;;;;9.88;4.68;;;2.60;99.90;;;;;;4967489;28;20042;-71
2023/01/25 06:43:35;;;;;;;10.25;5.78;;;2.60;99.90;;;;;;4965240;28;20411;-70
2023/01/25 06:46:04;;;;;;;13.40;3.78;;;2.60;99.90;;;;;;4971640;28;20035;-70
2023/01/25 06:48:31;;;;;;;13.27;6.05;;;2.50;99.90;;;;;;4946782;28;20041;-72
2023/01/25 06:51:04;;;;;;;11.48;5.35;;;2.40;99.90;;;;;;4973186;28;20042;-72
2023/01/25 06:53:33;;;;;;;11.35;5.57;;;2.20;99.90;;;;;;4993053;28;20027;-70
2023/01/25 06:56:06;;;;;;;11.55;5.68;;;2.10;99.90;;;;;;4974718;28;20394;-68
2023/01/25 06:58:32;;;;;;;6.82;4.38;;;2.00;99.90;;;;;;4980689;28;20092;-68
2023/01/25 07:01:11;;;;;;;5.80;3.47;;;2.10;99.90;;;;;;4990687;28;20038;-70
2023/01/25 07:03:37;;;;;;;8.65;3.75;;;2.20;99.90;;;;;;4992483;28;20105;-70
2023/01/25 07:06:07;;;;;;;11.38;4.78;;;2.20;99.90;;;;;;4991131;28;20032;-70
2023/01/25 07:08:34;;;;;;;10.13;4.68;;;2.30;99.90;;;;;;4976869;28;20538;-71
2023/01/25 07:11:03;;;;;;;13.30;5.28;;;2.30;99.90;;;;;;4987642;28;20061;-70
2023/01/25 07:13:31;;;;;;;8.93;6.07;;;2.30;99.90;;;;;;4988386;28;20030;-70
2023/01/25 07:16:04;;;;;;;7.57;3.70;;;2.30;99.90;;;;;;4973695;28;20679;-71
2023/01/25 07:18:31;;;;;;;11.38;4.53;;;2.40;99.90;;;;;;4986416;28;20192;-69
2023/01/25 07:21:14;;;;;;;12.90;5.60;;;2.30;99.90;;;;;;4973407;28;20057;-72
2023/01/25 07:23:41;;;;;;;13.95;4.75;;;2.40;99.90;;;;;;4987209;28;20498;-72
2023/01/25 07:26:20;;;;;;;8.85;2.78;;;2.40;99.90;;;;;;4983192;28;20035;-72
2023/01/25 07:28:46;;;;;;;14.68;4.80;;;2.20;99.90;;;;;;4979449;28;20517;-73
2023/01/25 07:31:16;;;;;;;12.25;5.03;;;2.20;99.90;;;;;;4988826;28;20045;-72
2023/01/25 07:33:42;;;;;;;10.93;5.32;;;2.30;99.90;;;;;;4991256;28;20041;-72
2023/01/25 07:36:10;;;;;;;8.40;3.95;;;2.40;99.90;;;;;;4974425;28;20061;-71
2023/01/25 07:38:36;;;;;;;10.68;4.72;;;2.30;99.90;;;;;;4981902;28;20030;-71
2023/01/25 07:41:03;;;;;;;9.45;3.92;;;2.20;99.90;;;;;;4991958;28;20038;-72
2023/01/25 07:43:29;;;;;;;8.45;4.47;;;2.20;99.90;;;;;;4973835;28;20084;-72
2023/01/25 07:46:04;;;;;;;8.63;4.38;;;2.30;99.90;;;;;;4981906;28;20133;-72
2023/01/25 07:48:31;;;;;;;9.25;4.18;;;2.40;99.90;;;;;;4957805;28;20371;-72
2023/01/25 07:51:22;;;;;;;14.32;5.20;;;2.40;99.90;;;;;;4983128;28;20443;-73
2023/01/25 07:53:57;;;;;;;11.38;5.57;;;2.40;99.90;;;;;;4988835;28;20105;-73
2023/01/25 07:56:29;;;;;;;8.50;3.88;;;2.20;99.90;;;;;;4990117;28;20038;-73
2023/01/25 07:58:56;;;;;;;17.83;5.38;;;2.20;99.90;;;;;;4991936;28;20065;-69
2023/01/25 08:01:25;;;;;;;8.55;3.97;;;2.10;99.90;;;;;;4974000;28;20026;-71
2023/01/25 08:03:53;;;;;;;10.38;5.05;;;2.10;99.90;;;;;;4986106;28;20038;-72
2023/01/25 08:06:26;;;;;;;11.50;4.78;;;2.10;99.90;;;;;;4973086;28;20072;-72
2023/01/25 08:08:53;;;;;;;7.55;4.10;;;2.20;99.90;;;;;;4977485;28;20545;-73
2023/01/25 08:11:26;;;;;;;15.07;6.35;;;2.30;99.90;;;;;;4990587;28;20034;-72
2023/01/25 08:13:52;;;;;;;9.48;4.65;;;2.40;99.90;;;;;;4972751;28;20026;-72
2023/01/25 08:16:22;;;;;;;10.45;4.88;;;2.40;99.90;;;;;;4989795;28;20034;-73
2023/01/25 08:18:53;;;;;;;13.25;6.10;;;2.30;99.90;;;;;;4987614;28;20517;-73
2023/01/25 08:21:20;;;;;;;10.32;4.55;;;2.30;99.90;;;;;;4998099;28;20042;-71
2023/01/25 08:23:46;;;;;;;10.93;4.00;;;2.30;99.90;;;;;;4974566;28;20040;-72
2023/01/25 08:26:14;;;;;;;7.97;3.47;;;2.30;99.90;;;;;;4991056;28;20438;-72
2023/01/25 08:28:40;;;;;;;6.78;3.58;;;2.40;99.90;;;;;;4989573;28;20653;-73
2023/01/25 08:31:08;;;;;;;4.57;2.97;;;2.50;99.90;;;;;;4960361;28;20034;-73
2023/01/25 08:33:34;;;;;;;14.60;4.65;;;2.40;99.90;;;;;;5014686;23;20062;-71
2023/01/25 08:36:00;;;;;;;9.63;3.92;;;2.40;99.90;;;;;;4991800;28;20091;-71
2023/01/25 08:38:26;;;;;;;7.00;3.20;;;2.50;99.90;;;;;;5001314;28;20509;-73
2023/01/25 08:40:52;;;;;;;7.65;4.10;;;2.50;99.90;;;;;;5010404;28;20030;-72
2023/01/25 08:43:18;;;;;;;5.25;3.65;;;2.60;99.90;;;;;;4998638;28;20037;-72
2023/01/25 08:45:44;;;;;;;9.13;4.15;;;2.60;99.90;;;;;;4990843;28;20038;-71
2023/01/25 08:48:14;;;;;;;7.68;3.13;;;2.40;99.90;;;;;;4990091;28;20070;-72
2023/01/25 08:50:46;;;;;;;10.85;3.67;;;2.30;99.90;;;;;;4991411;28;20033;-70
2023/01/25 08:53:12;;;;;;;8.93;3.30;;;2.30;99.90;;;;;;4987542;28;20483;-71
2023/01/25 08:55:40;;;;;;;16.73;4.40;;;2.20;99.90;;;;;;4989649;28;20046;-72
2023/01/25 08:58:09;;;;;;;10.75;3.95;;;2.10;99.90;;;;;;4989914;28;20129;-72
2023/01/25 09:00:39;;;;;;;10.30;3.95;;;2.10;99.90;;;;;;4990146;28;20037;-72
2023/01/25 09:03:09;;;;;;;5.82;3.25;;;2.20;99.90;;;;;;4971976;28;20031;-72
2023/01/25 09:05:36;;;;;;;6.93;3.67;;;2.20;99.90;;;;;;4989714;28;20117;-73
2023/01/25 09:08:04;;;;;;;10.23;4.70;;;2.20;99.90;;;;;;4986940;28;20066;-73
2023/01/25 09:10:31;;;;;;;6.35;3.38;;;2.20;99.90;;;;;;4973294;28;20019;-72
2023/01/25 09:12:56;;;;;;;7.97;4.35;;;2.10;99.90;;;;;;4990449;28;20026;-71
2023/01/25 09:15:22;;;;;;;12.77;4.63;;;2.20;99.90;;;;;;4983581;28;20406;-71
2023/01/25 09:17:53;;;;;;;8.27;4.47;;;2.30;99.90;;;;;;4989056;28;20034;-70
2023/01/25 09:20:20;;;;;;;7.65;4.07;;;2.40;99.90;;;;;;4983475;28;20035;-71
2023/01/25 09:22:46;;;;;;;8.32;3.45;;;2.50;99.90;;;;;;4988551;28;20046;-71
2023/01/25 09:25:13;;;;;;;6.72;3.55;;;2.50;99.90;;;;;;4988342;28;20034;-70
2023/01/25 09:27:39;;;;;;;7.97;3.90;;;2.60;99.90;;;;;;4989779;28;20431;-70
2023/01/25 09:30:07;;;;;;;5.43;3.60;;;2.60;99.90;;;;;;4998944;28;20030;-70
2023/01/25 09:32:33;;;;;;;6.65;2.97;;;2.40;99.90;;;;;;4991420;28;20044;-71
2023/01/25 09:34:59;;;;;;;6.07;2.70;;;2.50;99.90;;;;;;4988831;28;20386;-70
2023/01/25 09:37:25;;;;;;;10.98;4.07;;;2.70;99.90;;;;;;4989556;28;20398;-70
2023/01/25 09:39:50;;;;;;;5.03;2.25;;;2.50;99.90;;;;;;4989017;28;20034;-71
2023/01/25 09:42:41;;;;;;;9.45;3.53;;;2.60;99.90;;;;;;4985177;28;20038;-70
2023/01/25 09:45:14;;;;;;;4.50;3.20;;;2.60;99.90;;;;;;4988411;28;20553;-71
2023/01/25 09:48:02;;;;;;;7.13;3.58;;;2.80;99.90;;;;;;4989242;28;20781;-71
2023/01/25 09:50:47;;;;;;;6.90;3.35;;;2.80;99.90;;;;;;4971572;28;20042;-71
2023/01/25 09:53:23;;;;;;;5.75;3.22;;;2.70;99.90;;;;;;4989970;28;20045;-71
2023/01/25 09:55:57;;;;;;;8.50;3.53;;;2.70;99.90;;;;;;4989024;28;20038;-71
2023/01/25 09:58:45;;;;;;;11.30;4.28;;;2.70;99.90;;;;;;4989683;28;20154;-71
2023/01/25 10:01:27;;;;;;;7.22;3.90;;;2.70;99.90;;;;;;4974602;28;20034;-71
2023/01/25 10:04:09;;;;;;;4.25;2.55;;;2.60;99.90;;;;;;4989408;28;20038;-71
2023/01/25 10:06:51;;;;;;;7.35;3.47;;;2.60;99.90;;;;;;4988134;28;20077;-71
2023/01/25 10:09:32;;;;;;;7.53;3.50;;;2.60;99.90;;;;;;4981694;28;20038;-71
2023/01/25 10:12:02;;;;;;;;;;;2.60;99.90;;;;;;4990071;28;20104;-69
2023/01/25 10:14:32;;;;;;;7.40;3.70;;;2.40;99.90;;;;;;4972078;28;19918;-70
2023/01/25 10:17:12;;;;;;;11.10;4.18;;;2.50;99.90;;;;;;4988757;28;20032;-69
2023/01/25 10:19:55;;;;;;;13.85;3.70;;;2.60;99.90;;;;;;4990317;28;20430;-69
2023/01/25 10:22:27;;;;;;;5.88;2.72;;;2.30;99.90;;;;;;4988982;28;20043;-70
2023/01/25 10:25:12;;;;;;;;;;;2.30;99.90;;;;;;4989087;28;20032;-71
2023/01/25 10:27:41;;;;;;;12.95;3.97;;;2.40;99.90;;;;;;4985894;28;20364;-72
2023/01/25 10:30:34;;;;;;;5.97;3.53;;;2.60;99.90;;;;;;4982602;28;20038;-73
2023/01/25 10:33:11;;;;;;;6.80;3.00;;;2.50;99.90;;;;;;4987651;28;20035;-70
2023/01/25 10:35:42;;;;;;;6.28;2.80;;;2.60;99.90;;;;;;4989375;28;20453;-71
2023/01/25 10:38:24;;;;;;;7.45;4.53;;;2.70;99.90;;;;;;4992263;28;20345;-70
2023/01/25 10:40:59;;;;;;;9.43;4.47;;;2.80;99.90;;;;;;4993054;28;20513;-70
2023/01/25 10:43:25;;;;;;;11.45;5.43;;;2.70;99.90;;;;;;4985900;28;20117;-68
2023/01/25 10:45:50;;;;;;;7.60;4.00;;;2.60;99.90;;;;;;4991688;28;20558;-72
2023/01/25 10:48:35;;;;;;;8.98;3.20;;;2.60;99.90;;;;;;4991620;28;20030;-74
2023/01/25 10:51:01;;;;;;;8.80;2.60;;;2.70;99.90;;;;;;4973065;28;20386;-74
2023/01/25 10:53:27;;;;;;;6.97;3.65;;;2.60;99.90;;;;;;4993423;28;20466;-73
2023/01/25 10:56:10;;;;;;;8.68;4.30;;;2.50;99.90;;;;;;4993083;28;20109;-70
2023/01/25 10:58:43;;;;;;;5.53;2.70;;;2.60;99.90;;;;;;4992512;28;20034;-76
2023/01/25 11:01:23;;;;;;;9.95;3.92;;;2.60;99.90;;;;;;4974815;28;20503;-75
2023/01/25 11:03:49;;;;;;;8.40;3.63;;;2.60;99.90;;;;;;4991608;28;20078;-76
2023/01/25 11:06:35;;;;;;;19.42;6.07;;;2.70;99.90;;;;;;4992298;28;20058;-76
2023/01/25 11:09:21;;;;;;;8.38;4.40;;;2.90;99.90;;;;;;4993198;28;20054;-74
2023/01/25 11:12:06;;;;;;;12.95;4.40;;;2.80;99.90;;;;;;4992487;28;20103;-75
2023/01/25 11:14:32;;;;;;;8.68;4.25;;;2.70;99.90;;;;;;4987056;28;20030;-75
2023/01/25 11:17:02;;;;;;;7.60;3.50;;;2.70;99.90;;;;;;4974378;28;20038;-75
2023/01/25 11:19:31;;;;;;;7.38;3.72;;;2.80;99.90;;;;;;4992075;28;20062;-76
2023/01/25 11:21:59;;;;;;;7.63;3.90;;;2.70;99.90;;;;;;4991852;28;20042;-73
2023/01/25 11:24:35;;;;;;;9.35;3.65;;;2.80;99.90;;;;;;4991297;28;20030;-75
2023/01/25 11:27:21;;;;;;;8.57;4.18;;;2.80;99.90;;;;;;4990633;28;20030;-75
2023/01/25 11:30:19;;;;;;;7.53;3.72;;;3.00;99.90;;;;;;4991699;28;20041;-77
2023/01/25 11:32:45;;;;;;;12.48;4.47;;;3.00;99.90;;;;;;4975072;28;20545;-75
2023/01/25 11:35:26;;;;;;;11.35;3.72;;;3.00;99.90;;;;;;4992630;28;20121;-74
2023/01/25 11:38:13;;;;;;;9.77;4.93;;;3.00;99.90;;;;;;4979891;28;20114;-73
2023/01/25 11:40:45;;;;;;;8.48;3.65;;;3.00;99.90;;;;;;4974793;28;20277;-75
2023/01/25 11:43:37;;;;;;;6.93;3.92;;;2.90;99.90;;;;;;4992379;28;20479;-75
2023/01/25 11:46:24;;;;;;;6.47;4.00;;;3.10;99.90;;;;;;4989860;28;20078;-74
2023/01/25 11:49:11;;;;;;;7.35;3.58;;;2.80;99.90;;;;;;4990271;28;20030;-74
2023/01/25 11:51:44;;;;;;;10.02;4.07;;;2.80;99.90;;;;;;4989793;28;20033;-73
2023/01/25 11:54:41;;;;;;;9.60;4.00;;;2.90;99.90;;;;;;4975097;28;20026;-75
2023/01/25 11:58:00;;;;;;;11.57;3.67;;;2.90;99.90;;;;;;4945332;28;20551;-74
2023/01/25 12:01:04;;;;;;;8.18;3.70;;;3.00;99.90;;;;;;4985858;28;20100;-78
2023/01/25 12:04:13;;;;;;;6.13;3.17;;;2.90;99.90;;;;;;4978068;28;20045;-74
2023/01/25 12:06:59;;;;;;;7.55;2.90;;;3.00;99.90;;;;;;4973477;28;20141;-77
2023/01/25 12:09:50;;;;;;;11.73;4.65;;;3.10;99.90;;;;;;4985895;28;20053;-77
2023/01/25 12:12:40;;;;;;;11.15;4.45;;;3.10;99.90;;;;;;4991736;28;20041;-78
2023/01/25 12:15:42;;;;;;;6.93;3.10;;;3.00;99.90;;;;;;4992147;28;20113;-78
2023/01/25 12:18:17;;;;;;;9.18;4.25;;;3.10;99.90;;;;;;4991073;28;20034;-77
2023/01/25 12:21:29;;;;;;;10.23;3.45;;;3.10;99.90;;;;;;4975702;28;20487;-76
2023/01/25 12:24:20;;;;;;;5.32;3.45;;;3.20;99.90;;;;;;4972571;28;20053;-77
2023/01/25 12:27:38;;;;;;;8.10;4.00;;;3.30;99.90;;;;;;4989109;28;20030;-77
2023/01/25 12:30:36;;;;;;;6.50;3.95;;;3.40;99.90;;;;;;4936257;29;20541;-76
2023/01/25 12:33:13;;;;;;;18.27;4.05;;;3.30;99.90;;;;;;4928934;29;20048;-77
2023/01/25 12:35:53;;;;;;;9.90;4.30;;;3.30;99.90;;;;;;4976405;28;20050;-77
2023/01/25 12:38:40;;;;;;;6.72;3.88;;;3.20;99.90;;;;;;4974315;28;20093;-77
2023/01/25 12:41:32;;;;;;;9.35;4.03;;;3.00;99.90;;;;;;4990611;28;20037;-77
2023/01/25 12:44:13;;;;;;;9.32;3.10;;;2.90;99.90;;;;;;4987352;28;20034;-78
2023/01/25 12:46:58;;;;;;;12.50;4.60;;;3.00;99.90;;;;;;4989479;28;20042;-77
2023/01/25 12:49:47;;;;;;;4.63;2.40;;;3.10;99.90;;;;;;4983765;28;20065;-77
2023/01/25 12:52:51;;;;;;;11.52;3.58;;;3.10;99.90;;;;;;4989202;28;20054;-77
2023/01/25 12:55:18;;;;;;;6.63;2.63;;;3.00;99.90;;;;;;4990547;28;20375;-76
2023/01/25 12:58:00;;;;;;;7.43;3.97;;;3.10;99.90;;;;;;4987201;28;20062;-77
2023/01/25 13:00:47;;;;;;;6.55;3.28;;;3.10;99.90;;;;;;4974265;28;20034;-76
2023/01/25 13:03:40;;;;;;;9.07;4.10;;;3.20;99.90;;;;;;4988893;28;20097;-78
2023/01/25 13:06:35;;;;;;;6.75;3.75;;;3.30;99.90;;;;;;4987729;28;20034;-76
2023/01/25 13:09:06;;;;;;;8.25;4.28;;;3.30;99.90;;;;;;4989802;28;20054;-74
2023/01/25 13:11:39;;;;;;;8.93;3.42;;;3.20;99.90;;;;;;4990713;28;20034;-75
2023/01/25 13:14:14;;;;;;;7.25;3.28;;;3.20;99.90;;;;;;4989845;28;20030;-74
2023/01/25 13:16:51;;;;;;;6.95;3.90;;;3.20;99.90;;;;;;4988932;28;20520;-76